Time;durP1;ratioP1;P1;durP2;ratioP2;P2;SDS_P1;SDS_P2;PMS_P1;PMS_P2;Temp;Humidity;BMP_temperature;BMP_pressure;BME280_temperature;BME280_humidity;BME280_pressure;Samples;Min_cycle;Max_cycle;Signal;HPM_P1;HPM_P2
2022/01/19 00:00:08;;;;;;;43.96;15.49;;;4.90;99.90;;;;;;4717342;28;10000912;-64
2022/01/19 00:02:35;;;;;;;38.20;15.52;;;4.90;99.90;;;;;;5068417;28;20040;-64
2022/01/19 00:05:02;;;;;;;37.60;15.38;;;4.90;99.90;;;;;;5063186;28;20056;-64
2022/01/19 00:07:29;;;;;;;30.10;15.68;;;4.90;99.90;;;;;;5068639;28;20526;-64
2022/01/19 00:09:57;;;;;;;31.77;14.70;;;5.00;99.90;;;;;;5067810;28;20036;-64
2022/01/19 00:12:23;;;;;;;28.02;15.35;;;5.00;99.90;;;;;;5068462;28;20052;-64
2022/01/19 00:14:50;;;;;;;31.27;13.60;;;5.00;99.90;;;;;;5069418;28;20037;-65
2022/01/19 00:17:17;;;;;;;29.60;14.63;;;5.00;99.90;;;;;;5068619;28;20094;-65
2022/01/19 00:19:44;;;;;;;34.20;15.93;;;5.00;99.90;;;;;;5069718;28;20045;-63
2022/01/19 00:22:10;;;;;;;30.60;15.15;;;5.00;99.90;;;;;;5069671;28;20067;-64
2022/01/19 00:24:37;;;;;;;26.60;12.73;;;4.90;99.90;;;;;;5073466;28;20117;-64
2022/01/19 00:27:04;;;;;;;31.40;13.10;;;4.90;99.90;;;;;;5068237;28;20084;-65
2022/01/19 00:29:31;;;;;;;36.58;13.55;;;4.80;99.90;;;;;;5049779;28;20637;-65
2022/01/19 00:31:57;;;;;;;33.92;12.35;;;4.70;99.90;;;;;;5067810;28;20507;-64
2022/01/19 00:34:24;;;;;;;26.25;11.70;;;4.70;99.90;;;;;;5070008;28;20135;-65
2022/01/19 00:36:51;;;;;;;32.65;13.98;;;4.70;99.90;;;;;;5069515;28;20045;-65
2022/01/19 00:39:18;;;;;;;23.73;10.88;;;4.70;99.90;;;;;;5069741;28;20517;-64
2022/01/19 00:41:45;;;;;;;32.35;12.50;;;4.70;99.90;;;;;;5069479;28;20041;-65
2022/01/19 00:44:11;;;;;;;21.85;9.63;;;4.70;99.90;;;;;;5069841;28;20055;-65
2022/01/19 00:46:38;;;;;;;24.25;10.35;;;4.70;99.90;;;;;;5069187;28;20657;-65
2022/01/19 00:49:05;;;;;;;23.13;9.75;;;4.60;99.90;;;;;;5063848;28;20053;-65
2022/01/19 00:51:32;;;;;;;19.27;9.40;;;4.60;99.90;;;;;;5060398;28;20118;-65
2022/01/19 00:53:59;;;;;;;23.05;9.70;;;4.70;99.90;;;;;;5069657;28;20086;-64
2022/01/19 00:56:27;;;;;;;24.08;9.88;;;4.70;99.90;;;;;;5069503;28;20088;-64
2022/01/19 00:58:53;;;;;;;20.52;9.18;;;4.70;99.90;;;;;;5069127;28;20649;-66
2022/01/19 01:01:20;;;;;;;24.10;9.18;;;4.70;99.90;;;;;;5069265;28;20483;-66
2022/01/19 01:03:47;;;;;;;20.52;10.10;;;4.70;99.90;;;;;;5069717;28;20072;-64
2022/01/19 01:06:14;;;;;;;21.80;10.98;;;4.70;99.90;;;;;;5070018;28;20048;-68
2022/01/19 01:08:41;;;;;;;17.13;9.52;;;4.70;99.90;;;;;;5070097;28;20102;-66
2022/01/19 01:11:08;;;;;;;25.73;10.98;;;4.70;99.90;;;;;;5073713;28;20056;-66
2022/01/19 01:16:40;;;;;;;20.88;9.05;;;4.60;99.90;;;;;;5062607;28;20053;-67
2022/01/19 01:19:09;;;;;;;17.75;9.02;;;4.70;99.90;;;;;;5065359;28;20053;-66
2022/01/19 01:21:36;;;;;;;19.60;8.73;;;4.70;99.90;;;;;;5062034;28;20479;-65
2022/01/19 01:24:03;;;;;;;17.42;9.27;;;4.80;99.90;;;;;;5073918;28;20048;-65
2022/01/19 01:26:30;;;;;;;23.88;10.98;;;4.80;99.90;;;;;;5055530;28;20053;-65
2022/01/19 01:28:57;;;;;;;17.17;7.95;;;4.80;99.90;;;;;;5071561;28;20082;-64
2022/01/19 01:31:24;;;;;;;16.40;9.10;;;4.80;99.90;;;;;;5072797;28;20083;-64
2022/01/19 01:33:51;;;;;;;19.27;9.45;;;4.80;99.90;;;;;;5072409;28;20047;-64
2022/01/19 01:36:17;;;;;;;15.20;8.98;;;4.80;99.90;;;;;;5053294;28;20049;-65
2022/01/19 01:38:44;;;;;;;21.40;10.43;;;4.80;99.90;;;;;;5068109;28;20557;-65
2022/01/19 01:41:13;;;;;;;18.55;9.02;;;4.90;99.90;;;;;;5076780;28;20053;-65
2022/01/19 01:43:42;;;;;;;21.48;9.40;;;4.80;99.90;;;;;;5076892;28;20071;-65
2022/01/19 01:46:19;;;;;;;20.33;8.20;;;4.90;99.90;;;;;;5072384;28;20044;-64
2022/01/19 01:48:47;;;;;;;21.67;11.05;;;4.90;99.90;;;;;;5076174;28;20045;-64
2022/01/19 01:53:59;;;;;;;20.58;9.43;;;4.90;99.90;;;;;;5072472;28;20086;-65
2022/01/19 01:56:26;;;;;;;15.63;8.88;;;4.90;99.90;;;;;;5072609;28;20453;-65
2022/01/19 01:58:53;;;;;;;20.02;9.40;;;4.90;99.90;;;;;;5071396;28;20084;-65
2022/01/19 02:01:20;;;;;;;17.33;9.40;;;4.90;99.90;;;;;;4741240;27;10000789;-65
2022/01/19 02:03:47;;;;;;;20.55;9.00;;;4.90;99.90;;;;;;5081927;28;20258;-65
2022/01/19 02:08:58;;;;;;;17.95;10.10;;;4.80;99.90;;;;;;5072438;28;20439;-65
2022/01/19 02:15:47;;;;;;;19.77;8.82;;;4.80;99.90;;;;;;5072090;28;20685;-65
2022/01/19 02:23:02;;;;;;;25.58;9.50;;;4.90;99.90;;;;;;5050737;28;20070;-65
2022/01/19 02:25:35;;;;;;;20.00;9.45;;;4.90;99.90;;;;;;5066965;28;20094;-65
2022/01/19 02:36:52;;;;;;;21.30;9.05;;;4.90;99.90;;;;;;5071983;28;20068;-65
2022/01/19 02:42:08;;;;;;;19.38;7.90;;;4.90;99.90;;;;;;5071258;28;20049;-65
2022/01/19 02:49:46;;;;;;;16.25;7.68;;;4.80;99.90;;;;;;5070851;28;20101;-65
2022/01/19 02:52:13;;;;;;;26.58;8.20;;;4.80;99.90;;;;;;5071587;28;20098;-65
2022/01/19 02:54:40;;;;;;;17.05;7.70;;;4.90;99.90;;;;;;5071667;28;20698;-65
2022/01/19 02:57:10;;;;;;;17.23;7.55;;;4.80;99.90;;;;;;5071517;28;20084;-65
2022/01/19 02:59:50;;;;;;;18.73;7.82;;;4.90;99.90;;;;;;5088008;28;20078;-65
2022/01/19 03:10:34;;;;;;;18.00;7.38;;;4.80;99.90;;;;;;5079028;28;20079;-65
2022/01/19 03:13:01;;;;;;;20.40;7.50;;;4.80;99.90;;;;;;5068745;28;20052;-65
2022/01/19 03:15:28;;;;;;;25.77;7.35;;;4.80;99.90;;;;;;5070593;28;20097;-65
2022/01/19 03:17:58;;;;;;;19.23;7.43;;;4.80;99.90;;;;;;5048747;28;20044;-65
2022/01/19 03:20:26;;;;;;;16.90;6.63;;;4.80;99.90;;;;;;5069970;28;20545;-65
2022/01/19 03:25:19;;;;;;;15.30;7.30;;;4.80;99.90;;;;;;5070728;28;20049;-65
2022/01/19 03:27:47;;;;;;;15.73;6.88;;;4.90;99.90;;;;;;5070444;28;20045;-65
2022/01/19 03:30:15;;;;;;;14.25;7.60;;;4.90;99.90;;;;;;5070562;28;20052;-66
2022/01/19 03:32:42;;;;;;;17.70;8.23;;;4.90;99.90;;;;;;5069456;28;20056;-65
2022/01/19 03:35:09;;;;;;;18.38;8.43;;;4.90;99.90;;;;;;5087571;28;20048;-65
2022/01/19 03:37:36;;;;;;;18.23;7.63;;;4.90;99.90;;;;;;5076510;28;20075;-65
2022/01/19 03:40:04;;;;;;;13.20;6.57;;;5.00;99.90;;;;;;5070690;28;20044;-65
2022/01/19 03:42:30;;;;;;;16.77;7.15;;;4.90;99.90;;;;;;5070289;28;20040;-66
2022/01/19 03:44:57;;;;;;;18.23;7.70;;;4.90;99.90;;;;;;5070800;28;20045;-66
2022/01/19 03:47:26;;;;;;;15.30;7.07;;;4.90;99.90;;;;;;5072898;28;20109;-65
2022/01/19 03:49:53;;;;;;;21.35;6.78;;;5.00;99.90;;;;;;5072733;28;20049;-66
2022/01/19 03:52:21;;;;;;;15.38;6.60;;;5.00;99.90;;;;;;5072007;28;20049;-65
2022/01/19 03:54:48;;;;;;;20.90;7.97;;;5.00;99.90;;;;;;5072224;28;20048;-65
2022/01/19 03:57:15;;;;;;;19.52;8.02;;;5.10;99.90;;;;;;5073313;28;20048;-65
2022/01/19 03:59:42;;;;;;;20.13;9.43;;;5.00;99.90;;;;;;5071023;28;20048;-65
2022/01/19 04:02:09;;;;;;;18.83;8.52;;;5.10;99.90;;;;;;5068114;28;20048;-65
2022/01/19 04:04:48;;;;;;;19.45;7.70;;;5.00;99.90;;;;;;5047728;28;20069;-66
2022/01/19 04:07:31;;;;;;;;;;;5.10;99.90;;;;;;5056709;28;20083;-66
2022/01/19 04:09:57;;;;;;;18.48;7.60;;;5.20;99.90;;;;;;5071800;28;19921;-65
2022/01/19 04:12:42;;;;;;;19.30;9.50;;;5.20;99.90;;;;;;5071351;28;20056;-65
2022/01/19 04:15:09;;;;;;;29.58;8.95;;;5.20;99.90;;;;;;5072058;28;20133;-66
2022/01/19 04:17:41;;;;;;;20.05;7.95;;;5.20;99.90;;;;;;5071106;28;20098;-64
2022/01/19 04:20:08;;;;;;;24.95;9.00;;;5.20;99.90;;;;;;5070157;28;20074;-64
2022/01/19 04:22:36;;;;;;;30.33;9.65;;;5.20;99.90;;;;;;5051448;28;20119;-64
2022/01/19 04:25:03;;;;;;;22.58;7.63;;;5.20;99.90;;;;;;5070826;28;20048;-64
2022/01/19 04:30:03;;;;;;;23.40;8.55;;;5.20;99.90;;;;;;5070996;28;20076;-64
2022/01/19 04:35:04;;;;;;;15.05;8.55;;;5.20;99.90;;;;;;5073796;28;20098;-65
2022/01/19 04:46:23;;;;;;;17.85;6.93;;;5.30;99.90;;;;;;5079223;28;20052;-65
2022/01/19 05:02:34;;;;;;;19.63;6.75;;;5.40;99.90;;;;;;5073913;28;20049;-65
2022/01/19 05:07:39;;;;;;;24.27;7.78;;;5.40;99.90;;;;;;5073470;28;20090;-65
2022/01/19 05:15:34;;;;;;;21.75;7.10;;;5.50;99.90;;;;;;5072809;28;20049;-64
2022/01/19 05:18:02;;;;;;;22.17;6.80;;;5.60;99.90;;;;;;5071515;28;20072;-64
2022/01/19 05:20:29;;;;;;;16.60;6.35;;;5.50;99.90;;;;;;5072883;28;20074;-64
2022/01/19 05:22:55;;;;;;;16.27;5.82;;;5.50;99.90;;;;;;5071886;28;20238;-65
2022/01/19 05:25:22;;;;;;;16.27;6.43;;;5.50;99.90;;;;;;5073458;28;20048;-66
2022/01/19 05:27:49;;;;;;;14.80;5.88;;;5.50;99.90;;;;;;5073364;28;20055;-64
2022/01/19 05:30:17;;;;;;;23.45;5.78;;;5.60;99.90;;;;;;5072006;28;20105;-65
2022/01/19 05:32:45;;;;;;;30.80;6.60;;;5.60;99.90;;;;;;5072658;28;20056;-65
2022/01/19 05:35:12;;;;;;;25.30;6.57;;;5.60;99.90;;;;;;5072766;28;20097;-66
2022/01/19 05:37:38;;;;;;;20.30;6.13;;;5.60;99.90;;;;;;5072995;28;20899;-65
2022/01/19 05:40:07;;;;;;;18.77;6.15;;;5.70;99.90;;;;;;5073306;28;20053;-66
2022/01/19 05:42:34;;;;;;;14.45;5.72;;;5.70;99.90;;;;;;5077737;28;20041;-65
2022/01/19 05:45:01;;;;;;;21.67;5.38;;;5.70;99.90;;;;;;5072685;28;20056;-65
2022/01/19 05:47:28;;;;;;;21.20;4.68;;;5.70;99.90;;;;;;5072380;28;20557;-65
2022/01/19 05:49:55;;;;;;;14.15;4.90;;;5.80;99.90;;;;;;5066944;28;20041;-65
2022/01/19 05:52:21;;;;;;;22.92;6.35;;;5.70;99.90;;;;;;5067285;28;20505;-65
2022/01/19 05:54:48;;;;;;;12.57;4.15;;;5.70;99.90;;;;;;5072320;28;20060;-65
2022/01/19 05:57:15;;;;;;;17.75;4.85;;;5.80;99.90;;;;;;5072455;28;20064;-65
2022/01/19 05:59:42;;;;;;;18.60;5.38;;;5.80;99.90;;;;;;5083926;28;20510;-65
2022/01/19 06:02:08;;;;;;;15.02;4.00;;;5.80;99.90;;;;;;5080930;28;20051;-64
2022/01/19 06:04:35;;;;;;;13.05;4.65;;;5.90;99.90;;;;;;5071884;28;20044;-64
2022/01/19 06:07:03;;;;;;;12.43;4.10;;;5.90;99.90;;;;;;5070770;28;20048;-66
2022/01/19 06:09:35;;;;;;;13.68;5.22;;;5.90;99.90;;;;;;5072214;28;20690;-65
2022/01/19 06:12:07;;;;;;;13.18;4.63;;;5.90;99.90;;;;;;5072114;28;20517;-65
2022/01/19 06:14:34;;;;;;;22.80;4.93;;;5.90;99.90;;;;;;5072188;28;20056;-64
2022/01/19 06:17:01;;;;;;;20.08;5.82;;;5.90;99.90;;;;;;5061284;28;20052;-68
2022/01/19 06:19:28;;;;;;;15.30;4.25;;;5.90;99.90;;;;;;5066047;28;20098;-63
2022/01/19 06:21:55;;;;;;;15.07;4.10;;;6.00;99.90;;;;;;5072196;28;20396;-64
2022/01/19 06:24:22;;;;;;;12.10;4.03;;;5.90;99.90;;;;;;5072269;28;20044;-65
2022/01/19 06:26:49;;;;;;;14.50;4.35;;;5.90;99.90;;;;;;5070609;28;20040;-65
2022/01/19 06:29:16;;;;;;;14.32;3.65;;;5.90;99.90;;;;;;5071913;28;20048;-66
2022/01/19 06:31:42;;;;;;;12.23;4.60;;;5.90;99.90;;;;;;5072101;28;20897;-65
2022/01/19 06:34:09;;;;;;;17.45;5.45;;;5.90;99.90;;;;;;5070001;28;20041;-65
2022/01/19 06:36:36;;;;;;;14.73;4.30;;;6.00;99.90;;;;;;5066704;28;20449;-65
2022/01/19 06:39:03;;;;;;;18.58;4.72;;;6.00;99.90;;;;;;5067813;28;20156;-64
2022/01/19 06:41:30;;;;;;;16.17;4.93;;;5.90;99.90;;;;;;5059041;28;20048;-64
2022/01/19 06:43:57;;;;;;;14.50;4.85;;;5.90;99.90;;;;;;5063193;28;20045;-67
2022/01/19 06:46:24;;;;;;;9.25;3.83;;;6.00;99.90;;;;;;5062894;28;20045;-64
2022/01/19 06:48:51;;;;;;;15.90;4.68;;;5.90;99.90;;;;;;5067043;28;20048;-64
2022/01/19 06:51:17;;;;;;;21.65;5.00;;;6.00;99.90;;;;;;5071344;28;20521;-65
2022/01/19 06:53:44;;;;;;;12.52;4.60;;;6.00;99.90;;;;;;5071152;28;20075;-64
2022/01/19 06:56:11;;;;;;;13.88;3.92;;;6.00;99.90;;;;;;5068430;28;20462;-63
2022/01/19 06:58:38;;;;;;;8.93;3.42;;;6.00;99.90;;;;;;5070906;28;20045;-65
2022/01/19 07:01:05;;;;;;;16.80;4.60;;;6.00;99.90;;;;;;5067132;28;20049;-64
2022/01/19 07:03:33;;;;;;;10.32;4.68;;;6.00;99.90;;;;;;5080748;28;20044;-64
2022/01/19 07:06:01;;;;;;;15.38;4.35;;;6.00;99.90;;;;;;5071320;28;20063;-65
2022/01/19 07:08:28;;;;;;;17.45;4.80;;;5.90;99.90;;;;;;5068555;28;20052;-64
2022/01/19 07:10:55;;;;;;;14.20;4.85;;;6.00;99.90;;;;;;5071056;28;20076;-64
2022/01/19 07:13:21;;;;;;;19.23;4.65;;;6.00;99.90;;;;;;5078388;28;20047;-65
2022/01/19 07:15:48;;;;;;;17.00;3.78;;;6.00;99.90;;;;;;5066772;28;20049;-63
2022/01/19 07:18:15;;;;;;;8.45;3.90;;;6.00;99.90;;;;;;5070459;28;20416;-66
2022/01/19 07:20:42;;;;;;;14.75;4.40;;;6.00;99.90;;;;;;5070578;28;20040;-66
2022/01/19 07:23:09;;;;;;;14.52;3.42;;;6.00;99.90;;;;;;5071053;28;20105;-65
2022/01/19 07:25:36;;;;;;;10.57;3.67;;;6.10;99.90;;;;;;5070895;28;20086;-65
2022/01/19 07:28:05;;;;;;;14.77;4.53;;;6.00;99.90;;;;;;5059876;28;20053;-65
2022/01/19 07:30:32;;;;;;;20.10;4.85;;;6.10;99.90;;;;;;5063568;28;20044;-65
2022/01/19 07:32:59;;;;;;;15.32;5.20;;;6.10;99.90;;;;;;5055795;28;20098;-65
2022/01/19 07:35:26;;;;;;;11.13;4.25;;;6.10;99.90;;;;;;5061742;28;20076;-65
2022/01/19 07:37:53;;;;;;;13.70;4.15;;;6.20;99.90;;;;;;5057419;28;20462;-65
2022/01/19 07:40:20;;;;;;;15.90;4.72;;;6.10;99.90;;;;;;5062599;28;20045;-65
2022/01/19 07:42:47;;;;;;;12.10;5.13;;;6.10;99.90;;;;;;5056383;28;20126;-64
2022/01/19 07:45:14;;;;;;;17.13;4.53;;;6.10;99.90;;;;;;5058861;28;20051;-65
2022/01/19 07:47:40;;;;;;;7.68;4.22;;;6.20;99.90;;;;;;5060490;28;20103;-64
2022/01/19 07:50:08;;;;;;;17.42;5.60;;;6.20;99.90;;;;;;5065278;28;20054;-64
2022/01/19 07:52:35;;;;;;;8.27;3.90;;;6.20;99.90;;;;;;5067800;28;20643;-64
2022/01/19 07:55:02;;;;;;;21.33;5.07;;;6.20;99.90;;;;;;5067800;28;20048;-63
2022/01/19 07:57:28;;;;;;;10.93;4.60;;;6.20;99.90;;;;;;5069501;28;20181;-65
2022/01/19 07:59:55;;;;;;;13.18;5.22;;;6.10;99.90;;;;;;5060880;28;20515;-65
2022/01/19 08:02:30;;;;;;;14.25;5.22;;;6.10;99.90;;;;;;5065219;28;20040;-65
2022/01/19 08:04:57;;;;;;;15.52;4.35;;;6.10;99.90;;;;;;5052511;28;20072;-65
2022/01/19 08:07:24;;;;;;;26.63;7.22;;;6.00;99.90;;;;;;5068759;28;20102;-65
2022/01/19 08:09:50;;;;;;;20.25;6.32;;;6.10;99.90;;;;;;5069956;28;20479;-65
2022/01/19 08:12:17;;;;;;;10.57;4.82;;;6.00;99.90;;;;;;5069330;28;20109;-65
2022/01/19 08:14:44;;;;;;;12.73;6.13;;;6.00;99.90;;;;;;5071724;28;20488;-65
2022/01/19 08:17:13;;;;;;;16.67;7.03;;;5.90;99.90;;;;;;5069915;28;20466;-67
2022/01/19 08:19:40;;;;;;;11.85;4.97;;;5.90;99.90;;;;;;5066842;28;20044;-66
2022/01/19 08:22:07;;;;;;;14.38;5.07;;;5.90;99.90;;;;;;5066617;28;20049;-65
2022/01/19 08:24:33;;;;;;;11.98;5.22;;;5.90;99.90;;;;;;5069620;28;20048;-65
2022/01/19 08:27:06;;;;;;;13.35;4.82;;;5.90;99.90;;;;;;5069457;28;20132;-64
2022/01/19 08:29:32;;;;;;;29.70;6.93;;;5.80;99.90;;;;;;5069615;28;20101;-65
2022/01/19 08:31:59;;;;;;;22.20;6.72;;;5.80;99.90;;;;;;5068917;28;20075;-64
2022/01/19 08:34:46;;;;;;;35.35;7.85;;;5.80;99.90;;;;;;5064759;28;20049;-64
2022/01/19 08:37:15;;;;;;;17.10;5.05;;;5.90;99.90;;;;;;5078242;28;20043;-64
2022/01/19 08:39:42;;;;;;;19.48;5.43;;;5.90;99.90;;;;;;5083548;28;20676;-65
2022/01/19 08:42:09;;;;;;;16.73;5.25;;;5.80;99.90;;;;;;5068016;28;20052;-65
2022/01/19 08:44:37;;;;;;;16.98;6.85;;;5.80;99.90;;;;;;5069396;28;20106;-64
2022/01/19 08:47:05;;;;;;;17.35;6.25;;;5.80;99.90;;;;;;5068904;28;20495;-65
2022/01/19 08:49:50;;;;;;;18.35;5.78;;;5.90;99.90;;;;;;5069271;28;20071;-64
2022/01/19 08:52:18;;;;;;;9.73;5.28;;;5.90;99.90;;;;;;5069061;28;20690;-64
2022/01/19 08:54:47;;;;;;;21.77;6.07;;;5.90;99.90;;;;;;5067979;28;20051;-64
2022/01/19 08:57:13;;;;;;;16.02;5.75;;;5.90;99.90;;;;;;5068105;28;20175;-60
2022/01/19 08:59:40;;;;;;;17.65;6.28;;;6.00;99.90;;;;;;5067858;28;20045;-66
2022/01/19 09:02:07;;;;;;;17.50;5.88;;;6.00;99.90;;;;;;5068286;28;20064;-66
2022/01/19 09:04:34;;;;;;;15.50;6.28;;;5.90;99.90;;;;;;5072239;28;20051;-66
2022/01/19 09:07:01;;;;;;;12.63;6.57;;;5.90;99.90;;;;;;5067273;28;20071;-66
2022/01/19 09:09:28;;;;;;;13.10;6.45;;;5.90;99.90;;;;;;5072172;28;20044;-66
2022/01/19 09:11:55;;;;;;;13.23;6.30;;;5.90;99.90;;;;;;5085388;28;20054;-66
2022/01/19 09:14:22;;;;;;;21.88;6.72;;;5.90;99.90;;;;;;5068324;28;20078;-66
2022/01/19 09:16:49;;;;;;;24.75;6.65;;;6.00;99.90;;;;;;5066277;28;20045;-68
2022/01/19 09:19:17;;;;;;;16.30;6.38;;;6.00;99.90;;;;;;5069626;28;20058;-65
2022/01/19 09:21:45;;;;;;;21.20;6.63;;;6.10;99.90;;;;;;5067148;28;20048;-66
2022/01/19 09:24:12;;;;;;;14.90;6.57;;;6.10;99.90;;;;;;5060554;28;20096;-66
2022/01/19 09:26:39;;;;;;;13.52;6.43;;;6.10;99.90;;;;;;5046306;28;20102;-66
2022/01/19 09:29:05;;;;;;;17.58;7.05;;;6.10;99.90;;;;;;5064247;28;20053;-67
2022/01/19 09:31:34;;;;;;;15.80;5.72;;;6.20;99.90;;;;;;5071423;28;20080;-66
2022/01/19 09:34:09;;;;;;;18.85;6.85;;;6.20;99.90;;;;;;5071342;28;20056;-67
2022/01/19 09:36:44;;;;;;;19.17;6.97;;;6.20;99.90;;;;;;5072210;28;20098;-66
2022/01/19 09:39:19;;;;;;;17.15;7.20;;;6.30;99.90;;;;;;5061511;28;20140;-66
2022/01/19 09:41:46;;;;;;;23.52;6.90;;;6.40;99.90;;;;;;5072609;28;20048;-66
2022/01/19 09:44:13;;;;;;;19.75;6.68;;;6.50;99.90;;;;;;5075416;28;20090;-66
2022/01/19 09:46:40;;;;;;;17.73;7.65;;;6.60;99.90;;;;;;5070990;28;20052;-66
2022/01/19 09:49:07;;;;;;;23.30;6.47;;;6.70;99.90;;;;;;5072206;28;20094;-66
2022/01/19 09:51:34;;;;;;;13.77;5.82;;;6.70;99.90;;;;;;5070887;28;20553;-66
2022/01/19 09:54:01;;;;;;;21.30;8.10;;;6.70;99.90;;;;;;5078121;28;20400;-66
2022/01/19 09:56:28;;;;;;;14.25;6.28;;;6.80;99.90;;;;;;5070588;28;20044;-66
2022/01/19 09:58:55;;;;;;;15.77;5.93;;;7.10;99.90;;;;;;5053798;28;20056;-67
2022/01/19 10:01:22;;;;;;;15.95;5.47;;;7.00;99.90;;;;;;5068738;28;20041;-66
2022/01/19 10:03:50;;;;;;;14.73;5.57;;;7.00;99.90;;;;;;5069700;28;20056;-66
2022/01/19 10:06:17;;;;;;;12.65;5.80;;;7.00;99.90;;;;;;5084503;28;20044;-67
2022/01/19 10:08:46;;;;;;;13.30;6.72;;;7.00;99.90;;;;;;5091027;28;20052;-67
2022/01/19 10:17:10;;;;;;;12.38;6.55;;;7.00;99.90;;;;;;5055918;28;20102;-67
2022/01/19 10:19:42;;;;;;;13.63;6.35;;;7.00;99.90;;;;;;5069779;28;20053;-67
2022/01/19 10:22:13;;;;;;;14.57;6.55;;;7.10;99.90;;;;;;5072542;28;20129;-66
2022/01/19 10:24:52;;;;;;;19.40;6.88;;;7.10;99.90;;;;;;5072077;28;20703;-68
2022/01/19 10:27:32;;;;;;;17.48;6.18;;;7.20;99.90;;;;;;5071784;28;20053;-65
2022/01/19 10:30:02;;;;;;;14.20;5.75;;;7.20;99.90;;;;;;5070535;28;20048;-66
2022/01/19 10:33:02;;;;;;;14.15;6.38;;;7.30;99.90;;;;;;5071606;28;20712;-67
2022/01/19 10:35:37;;;;;;;15.23;6.30;;;7.20;99.90;;;;;;5070293;28;20052;-66
2022/01/19 10:38:20;;;;;;;11.50;5.40;;;7.20;99.90;;;;;;5060029;28;20053;-65
2022/01/19 10:40:57;;;;;;;13.90;5.88;;;7.20;99.90;;;;;;5059316;28;20048;-66
2022/01/19 10:43:41;;;;;;;12.77;6.28;;;7.20;99.90;;;;;;5074933;28;20114;-65
2022/01/19 10:46:28;;;;;;;14.13;5.43;;;7.20;99.90;;;;;;5083611;28;20045;-66
2022/01/19 10:49:04;;;;;;;18.48;6.65;;;7.10;99.90;;;;;;5069980;28;20056;-67
2022/01/19 10:51:45;;;;;;;11.27;5.28;;;7.10;99.90;;;;;;5072600;28;20048;-66
2022/01/19 10:54:19;;;;;;;16.15;6.20;;;7.20;99.90;;;;;;5088679;28;20075;-65
2022/01/19 10:56:48;;;;;;;10.52;6.10;;;7.20;99.90;;;;;;5083216;28;20040;-66
2022/01/19 10:59:17;;;;;;;14.40;5.38;;;7.30;99.90;;;;;;5073667;28;20523;-66
2022/01/19 11:01:51;;;;;;;12.40;7.40;;;7.20;99.90;;;;;;5069144;28;20064;-67
2022/01/19 11:04:28;;;;;;;16.08;5.93;;;7.30;99.90;;;;;;5060472;28;20064;-68
2022/01/19 11:07:01;;;;;;;15.98;6.10;;;7.30;99.90;;;;;;5068122;28;20049;-67
2022/01/19 11:09:29;;;;;;;13.18;5.95;;;7.40;99.90;;;;;;5068677;28;20102;-66
2022/01/19 11:11:59;;;;;;;16.17;5.72;;;7.40;99.90;;;;;;5068083;28;20608;-67
2022/01/19 11:14:26;;;;;;;18.60;8.02;;;7.40;99.90;;;;;;5052692;28;20059;-66
2022/01/19 11:16:53;;;;;;;14.73;6.97;;;7.50;99.90;;;;;;5070545;28;20044;-67
2022/01/19 11:19:20;;;;;;;13.18;6.57;;;7.60;99.90;;;;;;5069333;28;20109;-66
2022/01/19 11:22:06;;;;;;;20.73;7.35;;;7.60;99.90;;;;;;5068569;28;20102;-66
2022/01/19 11:24:40;;;;;;;29.05;10.43;;;7.70;99.90;;;;;;5073259;28;20045;-67
2022/01/19 11:27:07;;;;;;;18.08;6.55;;;7.60;99.90;;;;;;5073107;28;20095;-66
2022/01/19 11:29:34;;;;;;;12.80;5.82;;;7.60;99.90;;;;;;5070060;28;20094;-67
2022/01/19 11:32:16;;;;;;;17.02;6.43;;;7.60;99.90;;;;;;5067000;28;20044;-67
2022/01/19 11:34:50;;;;;;;13.15;6.20;;;7.60;99.90;;;;;;5062499;28;20122;-66
2022/01/19 11:37:40;;;;;;;15.15;6.75;;;7.60;99.90;;;;;;5059104;28;20428;-66
2022/01/19 11:40:11;;;;;;;16.30;7.05;;;7.80;99.90;;;;;;5059478;28;20474;-67
2022/01/19 11:42:39;;;;;;;9.45;5.60;;;7.90;99.90;;;;;;5070145;28;20082;-67
2022/01/19 11:45:07;;;;;;;16.95;6.57;;;8.00;99.90;;;;;;5070106;28;20118;-68
2022/01/19 11:47:34;;;;;;;15.13;6.22;;;8.10;99.90;;;;;;5083698;28;20060;-66
2022/01/19 11:50:01;;;;;;;13.73;6.22;;;8.20;99.90;;;;;;5069916;28;20056;-67
2022/01/19 11:52:39;;;;;;;14.85;5.55;;;8.20;99.90;;;;;;5070036;28;20561;-66
2022/01/19 11:55:22;;;;;;;14.95;7.18;;;8.20;99.90;;;;;;5069625;28;20052;-67
2022/01/19 11:58:09;;;;;;;18.35;6.22;;;8.30;99.90;;;;;;5069791;28;20557;-66
2022/01/19 12:00:36;;;;;;;12.13;5.88;;;8.30;99.90;;;;;;5068605;28;20045;-67
2022/01/19 12:03:31;;;;;;;13.60;5.70;;;8.40;99.90;;;;;;5059616;28;20047;-66
2022/01/19 12:06:31;;;;;;;11.23;5.22;;;8.50;99.90;;;;;;5061777;28;20131;-67
2022/01/19 12:09:00;;;;;;;15.32;7.65;;;8.60;99.90;;;;;;5068262;28;20040;-67
2022/01/19 12:11:28;;;;;;;16.45;6.07;;;8.60;99.90;;;;;;5069782;28;20403;-66
2022/01/19 12:14:19;;;;;;;7.93;5.13;;;8.80;99.90;;;;;;5068206;28;20128;-66
2022/01/19 12:16:57;;;;;;;10.85;5.13;;;8.80;99.90;;;;;;5069737;28;20075;-66
2022/01/19 12:19:27;;;;;;;9.80;4.32;;;8.80;99.90;;;;;;5069277;28;20084;-65
2022/01/19 12:22:06;;;;;;;12.18;5.15;;;8.80;99.90;;;;;;5069313;28;20052;-65
2022/01/19 12:24:42;;;;;;;14.93;5.28;;;8.80;99.90;;;;;;5072697;28;20041;-65
2022/01/19 12:27:15;;;;;;;8.00;5.00;;;8.80;99.90;;;;;;5069289;28;20052;-66
2022/01/19 12:29:44;;;;;;;11.23;5.05;;;8.80;99.90;;;;;;5069406;28;20056;-66
2022/01/19 12:32:16;;;;;;;11.20;4.15;;;8.80;99.90;;;;;;5069522;28;20048;-66
2022/01/19 12:34:46;;;;;;;8.32;4.32;;;8.90;99.90;;;;;;5069500;28;20052;-66
2022/01/19 12:37:43;;;;;;;13.48;5.13;;;8.80;99.90;;;;;;5068036;28;20048;-66
2022/01/19 12:40:21;;;;;;;11.43;5.40;;;8.80;99.90;;;;;;5053177;28;20742;-65
2022/01/19 12:42:54;;;;;;;9.95;4.88;;;8.80;99.90;;;;;;5069883;28;20071;-65
2022/01/19 12:45:26;;;;;;;13.30;5.20;;;8.80;99.90;;;;;;5057622;28;20044;-65
2022/01/19 12:48:03;;;;;;;8.48;4.45;;;8.80;99.90;;;;;;5069913;28;20052;-66
2022/01/19 12:50:44;;;;;;;13.07;4.90;;;8.70;99.90;;;;;;5062943;28;20492;-67
2022/01/19 12:53:17;;;;;;;8.27;6.18;;;8.70;99.90;;;;;;5068829;28;20102;-66
2022/01/19 12:55:49;;;;;;;12.52;4.68;;;8.80;99.90;;;;;;5068194;28;20188;-66
2022/01/19 12:58:46;;;;;;;6.70;4.30;;;8.80;99.90;;;;;;5069587;28;20049;-65
2022/01/19 13:01:13;;;;;;;12.23;4.97;;;8.70;99.90;;;;;;5057952;28;20048;-66
2022/01/19 13:03:42;;;;;;;12.65;4.75;;;8.70;99.90;;;;;;5063462;28;20040;-66
2022/01/19 13:06:11;;;;;;;9.00;4.72;;;8.70;99.90;;;;;;5069879;28;20052;-66
2022/01/19 13:08:43;;;;;;;13.35;6.63;;;8.70;99.90;;;;;;5073580;28;20458;-65
2022/01/19 13:11:35;;;;;;;13.65;5.10;;;8.70;99.90;;;;;;5083708;28;20079;-66
2022/01/19 13:14:07;;;;;;;10.23;5.63;;;8.70;99.90;;;;;;5073084;28;20049;-65
2022/01/19 13:16:45;;;;;;;12.88;5.63;;;8.80;99.90;;;;;;5075237;28;20044;-65
2022/01/19 13:19:18;;;;;;;10.00;4.18;;;8.80;99.90;;;;;;5072775;28;20548;-66
2022/01/19 13:21:50;;;;;;;15.80;5.00;;;8.80;99.90;;;;;;5071055;28;20598;-65
2022/01/19 13:24:26;;;;;;;12.82;4.05;;;8.80;99.90;;;;;;5070515;28;20052;-66
2022/01/19 13:26:59;;;;;;;9.27;4.93;;;8.80;99.90;;;;;;5070136;28;20501;-66
2022/01/19 13:29:28;;;;;;;7.72;4.80;;;8.80;99.90;;;;;;5071641;28;20044;-65
2022/01/19 13:32:04;;;;;;;14.93;5.25;;;8.70;99.90;;;;;;5071902;28;20080;-66
2022/01/19 13:34:34;;;;;;;14.88;5.38;;;8.70;99.90;;;;;;5072118;28;20432;-66
2022/01/19 13:37:02;;;;;;;14.07;5.47;;;8.50;99.90;;;;;;5072467;28;20519;-66
2022/01/19 13:39:31;;;;;;;12.02;5.70;;;8.50;99.90;;;;;;5070919;28;20628;-66
2022/01/19 13:41:59;;;;;;;8.55;5.60;;;8.40;99.90;;;;;;5072174;28;20119;-65
2022/01/19 13:44:33;;;;;;;14.13;4.60;;;8.40;99.90;;;;;;5072452;28;20058;-65
2022/01/19 13:47:14;;;;;;;9.25;5.13;;;8.30;99.90;;;;;;5071699;28;20102;-66
2022/01/19 13:49:41;;;;;;;9.02;4.68;;;8.20;99.90;;;;;;5071195;28;20052;-66
2022/01/19 13:52:10;;;;;;;14.65;5.72;;;8.10;99.90;;;;;;5081526;28;20106;-66
2022/01/19 13:54:38;;;;;;;12.50;5.10;;;8.00;99.90;;;;;;5079736;28;20044;-66
2022/01/19 13:57:05;;;;;;;7.75;4.75;;;8.00;99.90;;;;;;5077445;28;20133;-66
2022/01/19 13:59:33;;;;;;;9.77;4.90;;;7.90;99.90;;;;;;5083634;28;20105;-66
2022/01/19 14:02:05;;;;;;;14.80;5.28;;;7.90;99.90;;;;;;5066733;28;20049;-66
2022/01/19 14:04:34;;;;;;;11.18;5.03;;;7.90;99.90;;;;;;5057477;28;20097;-67
2022/01/19 14:07:16;;;;;;;11.35;6.00;;;7.90;99.90;;;;;;5070874;28;20158;-67
2022/01/19 14:09:43;;;;;;;8.48;5.25;;;7.90;99.90;;;;;;5068838;28;20079;-67
2022/01/19 14:12:11;;;;;;;13.60;5.47;;;7.80;99.90;;;;;;5090889;28;20051;-67
2022/01/19 14:14:43;;;;;;;9.38;5.30;;;7.90;99.90;;;;;;5066489;28;20446;-67
2022/01/19 14:17:47;;;;;;;12.65;4.85;;;7.90;99.90;;;;;;5070499;28;20506;-67
2022/01/19 14:20:21;;;;;;;11.93;5.93;;;7.90;99.90;;;;;;5060123;28;20071;-68
2022/01/19 14:22:49;;;;;;;10.73;6.15;;;8.00;99.90;;;;;;5070276;28;20068;-67
2022/01/19 14:25:16;;;;;;;10.15;6.00;;;8.00;99.90;;;;;;5071462;28;20076;-66
2022/01/19 14:27:53;;;;;;;18.42;6.68;;;8.00;99.90;;;;;;5071382;28;20056;-66